Terminal Aerodrome Forecast
Issued by NWS

Current Version | Previous Version | Text Only | Print | Product List | Glossary On
Versions: 1 2 3 4 5 6 7 8 9 10 11 12 13 14 15 16 17 18 19 20 21 22 23 24 25 26 27 28 29 30
000
FTUS41 KILN 221700
TAFLUK
TAF
KLUK 221736Z 2218/2318 21005KT P6SM SCT040
     FM230000 VRB03KT P6SM SCT250
      TEMPO 2307/2311 2SM BR
     FM231200 25005KT P6SM SCT100 BKN200
     FM231400 28007KT P6SM VCTS BKN050CB
     FM231700 31007KT 5SM -SHRA BR VCTS OVC050CB=

USA.gov is the U.S. government's official web portal to all federal, state and local government web resources and services.